createdAt,value
2023-01-23T00:01:48.744Z,10.17
2023-01-23T00:06:53.238Z,12.17
2023-01-23T00:11:56.222Z,10.97
2023-01-23T00:16:59.512Z,10.73
2023-01-23T00:22:04.174Z,11.40
2023-01-23T00:27:07.214Z,11.07
2023-01-23T00:32:10.330Z,12.33
2023-01-23T00:37:14.971Z,11.43
2023-01-23T00:42:19.273Z,11.23
2023-01-23T00:47:22.270Z,11.37
2023-01-23T00:52:27.533Z,10.33
2023-01-23T00:57:32.751Z,10.73
2023-01-23T01:02:43.920Z,10.90
2023-01-23T01:07:55.504Z,10.27
2023-01-23T01:12:59.689Z,10.63
2023-01-23T01:18:03.851Z,10.73
2023-01-23T01:23:08.365Z,10.73
2023-01-23T01:28:11.550Z,10.43
2023-01-23T01:33:14.690Z,11.13
2023-01-23T01:38:19.068Z,11.07
2023-01-23T01:43:26.699Z,11.30
2023-01-23T01:48:33.483Z,10.90
2023-01-23T01:53:38.983Z,11.37
2023-01-23T01:58:46.001Z,12.07
2023-01-23T02:03:52.375Z,11.87
2023-01-23T02:09:02.657Z,11.93
2023-01-23T02:14:06.234Z,11.60
2023-01-23T02:19:20.213Z,11.57
2023-01-23T02:24:33.351Z,10.93
2023-01-23T02:29:45.958Z,11.20
2023-01-23T02:34:50.048Z,10.87
2023-01-23T02:39:53.409Z,11.23
2023-01-23T02:44:59.758Z,11.80
2023-01-23T02:50:02.831Z,12.20
2023-01-23T02:55:06.743Z,11.90
2023-01-23T03:00:20.685Z,12.30
2023-01-23T03:05:24.083Z,11.77
2023-01-23T03:10:30.683Z,12.53
2023-01-23T03:15:38.466Z,11.17
2023-01-23T03:20:42.075Z,11.50
2023-01-23T03:25:45.603Z,11.53
2023-01-23T03:30:50.025Z,12.03
2023-01-23T03:35:53.173Z,12.23
2023-01-23T03:41:13.997Z,13.67
2023-01-23T03:46:18.917Z,12.47
2023-01-23T03:51:22.326Z,13.07
2023-01-23T03:56:26.918Z,12.47
2023-01-23T04:01:33.491Z,12.10
2023-01-23T04:06:36.806Z,12.57
2023-01-23T04:11:39.980Z,12.67
2023-01-23T04:16:45.783Z,12.13
2023-01-23T04:21:50.205Z,13.90
2023-01-23T04:26:53.248Z,12.30
2023-01-23T04:31:57.942Z,13.67
2023-01-23T04:37:06.121Z,12.90
2023-01-23T04:42:10.373Z,12.90
2023-01-23T04:47:33.544Z,13.50
2023-01-23T04:52:39.229Z,14.40
2023-01-23T04:57:42.618Z,14.07
2023-01-23T05:03:09.512Z,13.67
2023-01-23T05:08:20.996Z,14.87
2023-01-23T05:13:32.787Z,14.77
2023-01-23T05:18:37.781Z,15.00
2023-01-23T05:23:41.241Z,15.63
2023-01-23T05:28:44.447Z,16.73
2023-01-23T05:33:48.962Z,15.77
2023-01-23T05:38:52.038Z,14.53
2023-01-23T05:43:59.803Z,15.00
2023-01-23T05:49:23.051Z,15.77
2023-01-23T05:54:27.435Z,14.03
2023-01-23T05:59:30.305Z,15.43
2023-01-23T06:04:47.989Z,14.73
2023-01-23T06:10:00.403Z,13.83
2023-01-23T06:15:03.552Z,14.17
2023-01-23T06:20:11.098Z,14.30
2023-01-23T06:25:15.897Z,15.37
2023-01-23T06:30:20.235Z,15.50
2023-01-23T06:35:27.004Z,15.97
2023-01-23T06:40:31.392Z,15.03
2023-01-23T06:45:57.831Z,15.87
2023-01-23T06:51:03.206Z,15.93
2023-01-23T06:56:08.865Z,15.50
2023-01-23T07:01:16.342Z,15.47
2023-01-23T07:06:53.234Z,15.30
2023-01-23T07:11:57.050Z,15.20
2023-01-23T07:17:03.075Z,15.30
2023-01-23T07:22:08.482Z,16.43
2023-01-23T07:27:11.651Z,15.87
2023-01-23T07:32:14.598Z,16.47
2023-01-23T07:37:19.017Z,13.77
2023-01-23T07:42:22.112Z,16.17
2023-01-23T07:47:25.371Z,13.73
2023-01-23T07:52:30.116Z,14.63
2023-01-23T07:57:34.068Z,14.87
2023-01-23T08:02:37.814Z,14.30
2023-01-23T08:07:42.394Z,13.40
2023-01-23T08:12:46.676Z,14.27
2023-01-23T08:17:49.687Z,14.50
2023-01-23T08:22:54.088Z,15.30
2023-01-23T08:27:57.187Z,14.10
2023-01-23T08:33:01.130Z,14.83
2023-01-23T08:38:08.351Z,14.30
2023-01-23T08:43:13.986Z,13.87
2023-01-23T08:48:17.595Z,14.30
2023-01-23T08:53:23.447Z,14.67
2023-01-23T08:58:26.865Z,13.43
2023-01-23T09:03:29.839Z,14.23
2023-01-23T09:08:36.086Z,13.93
2023-01-23T09:13:39.601Z,15.77
2023-01-23T09:18:43.117Z,14.27
2023-01-23T09:23:47.985Z,15.50
2023-01-23T09:28:51.034Z,14.87
2023-01-23T09:33:54.061Z,14.77
2023-01-23T09:38:58.610Z,15.00
2023-01-23T09:44:07.683Z,14.87
2023-01-23T09:49:15.496Z,14.53
2023-01-23T09:54:32.387Z,14.40
2023-01-23T09:59:50.185Z,14.33
2023-01-23T10:05:03.864Z,14.67
2023-01-23T10:10:28.505Z,13.73
2023-01-23T10:15:43.131Z,13.87
2023-01-23T10:21:03.642Z,13.97
2023-01-23T10:26:16.306Z,12.43
2023-01-23T10:31:30.384Z,13.47
2023-01-23T10:36:47.956Z,11.77
2023-01-23T10:42:02.916Z,14.10
2023-01-23T10:47:18.411Z,13.27
2023-01-23T10:52:37.327Z,11.80
2023-01-23T10:57:49.673Z,11.93
2023-01-23T11:02:52.801Z,11.83
2023-01-23T11:07:56.320Z,11.50
2023-01-23T11:13:01.104Z,11.03
2023-01-23T11:18:23.813Z,10.77
2023-01-23T11:23:27.300Z,10.27
2023-01-23T11:28:35.548Z,10.93
2023-01-23T11:33:44.409Z,9.87
2023-01-23T11:38:53.102Z,10.63
2023-01-23T11:43:58.012Z,10.77
2023-01-23T11:49:23.116Z,10.60
2023-01-23T11:54:42.164Z,10.17
2023-01-23T12:00:02.378Z,10.03
2023-01-23T12:06:09.663Z,10.13
2023-01-23T12:11:22.380Z,9.60
2023-01-23T12:16:37.585Z,10.20
2023-01-23T12:21:50.885Z,9.23
2023-01-23T12:27:02.876Z,9.20
2023-01-23T12:32:26.777Z,8.73
2023-01-23T12:37:46.351Z,9.03
2023-01-23T12:42:56.886Z,8.93
2023-01-23T12:48:08.632Z,9.10
2023-01-23T12:53:13.592Z,9.43
2023-01-23T12:58:19.107Z,9.00
2023-01-23T13:03:58.937Z,8.43
2023-01-23T13:09:17.887Z,9.83
2023-01-23T13:14:32.859Z,9.83
2023-01-23T13:20:00.904Z,9.67
2023-01-23T13:25:13.531Z,8.73
2023-01-23T13:30:41.328Z,8.70
2023-01-23T13:35:56.168Z,9.40
2023-01-23T13:41:31.926Z,9.50
2023-01-23T14:25:19.221Z,10.33
2023-01-23T14:30:26.952Z,10.30
2023-01-23T14:35:32.552Z,10.00
2023-01-23T14:40:50.593Z,10.93
2023-01-23T14:46:01.083Z,10.33
2023-01-23T14:51:07.405Z,9.30
2023-01-23T14:56:13.502Z,9.60
2023-01-23T15:01:16.957Z,9.10
2023-01-23T15:06:24.809Z,10.30
2023-01-23T15:11:30.173Z,9.53
2023-01-23T15:16:38.026Z,9.97
2023-01-23T15:21:43.063Z,9.37
2023-01-23T15:26:58.128Z,9.43
2023-01-23T15:32:02.927Z,10.27
2023-01-23T15:37:08.571Z,10.73
2023-01-23T15:42:28.036Z,9.43
2023-01-23T15:47:33.417Z,8.07
2023-01-23T15:52:48.177Z,8.13
2023-01-23T15:57:53.631Z,7.87
2023-01-23T16:02:58.213Z,7.70
2023-01-23T16:08:04.544Z,8.03
2023-01-23T16:13:13.732Z,8.37
2023-01-23T16:18:16.777Z,8.43
2023-01-23T16:23:22.885Z,9.23
2023-01-23T16:28:27.305Z,9.20
2023-01-23T16:33:30.324Z,9.00
2023-01-23T16:38:33.935Z,8.67
2023-01-23T16:43:38.351Z,9.97
2023-01-23T16:48:41.649Z,10.50
2023-01-23T16:53:50.326Z,9.87
2023-01-23T16:58:54.819Z,11.07
2023-01-23T17:04:00.237Z,10.87
2023-01-23T17:09:03.657Z,9.83
2023-01-23T17:14:11.107Z,10.07
2023-01-23T17:19:24.876Z,9.80
2023-01-23T17:24:28.200Z,9.93
2023-01-23T17:29:35.689Z,11.17
2023-01-23T17:34:48.801Z,10.60
2023-01-23T17:39:53.085Z,10.17
2023-01-23T17:45:03.255Z,11.17
2023-01-23T17:50:07.236Z,12.07
2023-01-23T17:55:15.039Z,11.60
2023-01-23T18:00:20.988Z,10.97
2023-01-23T18:05:24.095Z,11.47
2023-01-23T18:10:29.853Z,11.50
2023-01-23T18:15:43.354Z,11.80
2023-01-23T18:20:47.056Z,11.83
2023-01-23T18:25:57.233Z,11.47
2023-01-23T18:31:09.017Z,12.00
2023-01-23T18:36:31.761Z,12.23
2023-01-23T18:41:35.115Z,12.23
2023-01-23T18:46:39.950Z,11.53
2023-01-23T18:51:47.805Z,11.50
2023-01-23T18:57:02.275Z,12.40
2023-01-23T19:02:21.422Z,11.57
2023-01-23T19:07:25.052Z,12.17
2023-01-23T19:12:31.869Z,11.23
2023-01-23T19:17:44.137Z,11.73
2023-01-23T19:22:55.639Z,11.53
2023-01-23T19:28:01.123Z,11.60
2023-01-23T19:33:05.940Z,12.20
2023-01-23T19:38:08.987Z,10.67
2023-01-23T19:43:16.759Z,11.57
2023-01-23T19:48:21.268Z,11.83
2023-01-23T19:53:24.239Z,11.73
2023-01-23T19:58:27.529Z,11.70
2023-01-23T20:03:31.913Z,12.13
2023-01-23T20:08:35.314Z,12.03
2023-01-23T20:13:38.878Z,13.07
2023-01-23T20:18:43.551Z,13.10
2023-01-23T20:23:47.826Z,11.97
2023-01-23T20:28:53.368Z,12.40
2023-01-23T20:33:58.199Z,12.23
2023-01-23T20:39:03.879Z,11.90
2023-01-23T20:44:07.238Z,11.83
2023-01-23T20:49:14.376Z,11.83
2023-01-23T20:54:17.940Z,12.07
2023-01-23T20:59:23.194Z,12.17
2023-01-23T21:04:29.795Z,12.73
2023-01-23T21:09:32.867Z,12.03
2023-01-23T21:14:36.130Z,12.20
2023-01-23T21:19:41.236Z,12.27
2023-01-23T21:24:44.629Z,11.93
2023-01-23T21:29:47.780Z,11.83
2023-01-23T21:34:52.285Z,12.00
2023-01-23T21:39:55.242Z,11.77
2023-01-23T21:45:00.499Z,12.40
2023-01-23T21:50:05.551Z,12.30
2023-01-23T21:55:09.458Z,11.87
2023-01-23T22:00:32.815Z,11.33
2023-01-23T22:05:37.437Z,12.47
2023-01-23T22:10:40.674Z,11.70
2023-01-23T22:15:43.738Z,11.33
2023-01-23T22:20:48.394Z,11.57
2023-01-23T22:25:52.874Z,11.47
2023-01-23T22:30:58.063Z,11.57
2023-01-23T22:36:06.584Z,11.27
2023-01-23T22:41:15.125Z,10.83
2023-01-23T22:46:19.371Z,12.03
2023-01-23T22:51:25.775Z,11.30
2023-01-23T22:56:31.388Z,12.23
2023-01-23T23:01:36.433Z,11.33
2023-01-23T23:06:40.811Z,11.83
2023-01-23T23:11:44.799Z,11.93
2023-01-23T23:16:47.873Z,12.47
2023-01-23T23:21:52.281Z,11.63
2023-01-23T23:26:55.405Z,12.87
2023-01-23T23:32:00.917Z,12.07
2023-01-23T23:37:05.745Z,11.33
2023-01-23T23:42:08.741Z,11.87
2023-01-23T23:47:11.760Z,11.53
2023-01-23T23:52:18.270Z,11.60
2023-01-23T23:57:21.326Z,11.90
